KRNT - Renton
Updated: Tue, 23-Oct-2018 12:53am PDT

 Wind from SE
Wind: SE 3 mph , 6 km/h
Temperature: 46°F , 8°C
Dew Point: 46°F , 8°C
Humidity: 100%
Barometer: 29.88 inHg , 1011.9 hPa
Visibility: 1/4 mile , 2 km
Cloud details: 200 ft
2018/10/23 07:53 KRNT 230753Z 13003KT 1/4SM VV002 08/08 A2988 RMK AO2 SLP122 T00830078 401330056
KBFI - Seattle-Boeing
Updated: Tue, 23-Oct-2018 12:53am PDT
Fog, Overcast
Fog, Overcast
 Wind from SW
Wind: SW 3 mph , 6 km/h
Temperature: 46°F , 8°C
Dew Point: 45°F , 7°C
Humidity: 93%
Barometer: 29.88 inHg , 1011.9 hPa
Visibility: 1/4 mile , 2 km
Cloud details: 200 ft
2018/10/23 07:53 KBFI 230753Z 23003KT 1/4SM FG VV002 08/07 A2988 RMK AO2 SLP119 T00780072 401220061
 
KSEA - Seattle
Updated: Tue, 23-Oct-2018 12:59am PDT
Fog, Overcast
Fog, Overcast
 Wind from SSW
Wind: SSW 3 mph , 6 km/h
Temperature: 45°F , 7°C
Dew Point: 43°F , 6°C
Humidity: 93%
Barometer: 29.88 inHg , 1011.9 hPa
Visibility: 1/4 mile , 2 km
Cloud details: 100 ft
2018/10/23 07:59 KSEA 230759Z 20003KT 1/4SM FG VV001 07/06 A2988 RMK AO2 TWR VIS 2 T00670056 RVRNO
KSMP - Stampede Pass
Updated: Tue, 23-Oct-2018 12:56am PDT

 Wind from varies
Wind: varies 5 mph , 7 km/h
Temperature: 45°F , 7°C
Wind Chill: 42°F , 6°C
Dew Point: 34°F , 1°C
Humidity: 66%
Barometer: 29.96 inHg , 1014.6 hPa
2018/10/23 07:56 KSMP 230756Z AUTO VRB04KT CLR 07/01 A2996 RMK AO2 SLP138 T00720006 $